Time;durP1;ratioP1;P1;durP2;ratioP2;P2;SDS_P1;SDS_P2;PMS_P1;PMS_P2;Temp;Humidity;BMP_temperature;BMP_pressure;BME280_temperature;BME280_humidity;BME280_pressure;Samples;Min_cycle;Max_cycle;Signal;HPM_P1;HPM_P2
2021/03/04 00:00:36;;;;;;;21.70;10.18;;;1.30;72.90;;;;;;5014172;28;20036;-79
2021/03/04 00:03:04;;;;;;;20.92;10.25;;;1.30;73.00;;;;;;5013721;28;20018;-78
2021/03/04 00:05:30;;;;;;;19.67;10.40;;;1.30;73.00;;;;;;5013759;28;20373;-79
2021/03/04 00:07:57;;;;;;;21.02;10.48;;;1.30;73.10;;;;;;5013395;28;20321;-78
2021/03/04 00:10:23;;;;;;;20.88;11.57;;;1.30;73.10;;;;;;4980777;28;20054;-78
2021/03/04 00:12:50;;;;;;;21.30;12.35;;;1.30;73.10;;;;;;4995013;28;20034;-78
2021/03/04 00:15:28;;;;;;;20.80;10.93;;;1.20;73.10;;;;;;5013785;28;20036;-78
2021/03/04 00:17:53;;;;;;;22.10;11.52;;;1.30;73.30;;;;;;5013521;28;20383;-78
2021/03/04 00:20:26;;;;;;;24.17;10.50;;;1.20;73.30;;;;;;4995927;28;20033;-78
2021/03/04 00:22:51;;;;;;;24.00;12.52;;;1.20;73.50;;;;;;5014067;28;20030;-78
2021/03/04 00:25:19;;;;;;;25.05;13.27;;;1.20;73.20;;;;;;4996878;28;20048;-78
2021/03/04 00:27:45;;;;;;;28.30;14.98;;;1.20;73.20;;;;;;5014303;28;20435;-78
2021/03/04 00:30:12;;;;;;;34.70;15.80;;;1.20;73.20;;;;;;5013323;28;20088;-79
2021/03/04 00:32:38;;;;;;;29.10;16.05;;;1.20;73.10;;;;;;5013647;28;20072;-79
2021/03/04 00:35:05;;;;;;;32.22;15.52;;;1.20;73.30;;;;;;5013650;28;20062;-79
2021/03/04 00:37:31;;;;;;;32.75;17.15;;;1.20;73.70;;;;;;5013656;28;20022;-79
2021/03/04 00:39:57;;;;;;;32.67;16.45;;;1.10;73.30;;;;;;5013316;28;20377;-78
2021/03/04 00:42:23;;;;;;;33.47;15.63;;;1.10;73.40;;;;;;5013547;28;20033;-78
2021/03/04 00:44:48;;;;;;;28.92;15.68;;;1.10;73.50;;;;;;4996411;28;20037;-78
2021/03/04 00:47:14;;;;;;;34.67;15.00;;;1.10;73.50;;;;;;5013503;28;20026;-79
2021/03/04 00:49:40;;;;;;;31.63;16.55;;;1.10;73.60;;;;;;5012221;28;20034;-78
2021/03/04 00:52:06;;;;;;;35.17;16.58;;;1.10;73.70;;;;;;4996129;28;20030;-79
2021/03/04 00:54:32;;;;;;;34.35;15.68;;;1.10;73.80;;;;;;5013346;28;20064;-78
2021/03/04 00:56:58;;;;;;;39.40;17.08;;;1.10;74.00;;;;;;5013731;28;20433;-78
2021/03/04 00:59:24;;;;;;;37.30;16.15;;;1.10;74.10;;;;;;5013217;28;20030;-78
2021/03/04 01:01:49;;;;;;;45.47;18.77;;;1.10;74.10;;;;;;5012276;28;20034;-78
2021/03/04 01:04:15;;;;;;;48.05;21.90;;;1.10;74.10;;;;;;5013031;28;20026;-77
2021/03/04 01:06:41;;;;;;;49.55;22.45;;;1.10;74.10;;;;;;5013020;28;20121;-78
2021/03/04 01:09:08;;;;;;;51.28;21.85;;;1.10;74.10;;;;;;5013399;28;20076;-79
2021/03/04 01:11:33;;;;;;;47.28;19.73;;;1.10;74.10;;;;;;5013007;28;20042;-78
2021/03/04 01:13:59;;;;;;;52.00;20.67;;;1.10;73.80;;;;;;5013797;28;20029;-78
2021/03/04 01:16:25;;;;;;;53.28;21.63;;;1.10;73.80;;;;;;5013317;28;20424;-78
2021/03/04 01:18:52;;;;;;;52.47;21.45;;;1.10;73.90;;;;;;5012952;28;20080;-78
2021/03/04 01:21:17;;;;;;;46.00;18.48;;;1.10;74.00;;;;;;5013193;28;20037;-78
2021/03/04 01:23:43;;;;;;;41.53;18.30;;;1.10;74.00;;;;;;5014363;28;20026;-78
2021/03/04 01:26:09;;;;;;;39.38;16.88;;;1.10;74.00;;;;;;5016675;28;20045;-78
2021/03/04 01:28:35;;;;;;;35.42;15.70;;;1.10;74.00;;;;;;5016641;28;20101;-78
2021/03/04 01:31:01;;;;;;;34.15;15.38;;;1.10;74.10;;;;;;5016257;28;20061;-78
2021/03/04 01:33:26;;;;;;;32.97;14.45;;;1.10;74.10;;;;;;5016663;28;20029;-78
2021/03/04 01:35:52;;;;;;;31.33;14.85;;;1.10;74.30;;;;;;5016898;28;20071;-79
2021/03/04 01:38:18;;;;;;;31.70;14.63;;;1.00;74.30;;;;;;5016680;28;20490;-78
2021/03/04 01:40:44;;;;;;;31.83;14.02;;;1.00;74.20;;;;;;5016763;28;20030;-78
2021/03/04 01:43:10;;;;;;;27.83;12.70;;;1.00;74.30;;;;;;5016373;28;20033;-79
2021/03/04 01:45:36;;;;;;;32.65;14.32;;;1.00;74.30;;;;;;5016766;28;20076;-78
2021/03/04 01:48:02;;;;;;;29.50;13.65;;;1.00;74.30;;;;;;5016617;28;20026;-78
2021/03/04 01:50:29;;;;;;;31.40;14.32;;;1.00;74.40;;;;;;5020893;28;20030;-79
2021/03/04 01:52:55;;;;;;;33.67;14.35;;;1.00;74.50;;;;;;5017026;28;20040;-79
2021/03/04 01:55:21;;;;;;;37.20;15.68;;;1.00;74.50;;;;;;5016962;28;20462;-79
2021/03/04 01:57:48;;;;;;;33.25;15.82;;;1.00;74.70;;;;;;5016595;28;20109;-78
2021/03/04 02:00:16;;;;;;;32.90;14.73;;;1.00;74.60;;;;;;5016634;28;20105;-78
2021/03/04 02:02:42;;;;;;;31.10;14.70;;;1.00;74.60;;;;;;5016464;28;20112;-78
2021/03/04 02:05:10;;;;;;;31.77;15.65;;;0.90;74.50;;;;;;4997620;28;20136;-79
2021/03/04 02:08:01;;;;;;;34.30;14.10;;;0.90;74.50;;;;;;4997345;28;20518;-77
2021/03/04 02:10:48;;;;;;;28.52;13.05;;;0.90;74.50;;;;;;4997174;28;20036;-79
2021/03/04 02:13:35;;;;;;;29.75;13.77;;;0.90;74.40;;;;;;5014771;28;20460;-79
2021/03/04 02:16:25;;;;;;;25.40;12.05;;;0.80;74.60;;;;;;5015243;28;20021;-78
2021/03/04 02:18:58;;;;;;;29.48;14.15;;;0.80;74.80;;;;;;5016249;28;20448;-77
2021/03/04 02:21:43;;;;;;;28.05;12.85;;;0.80;74.90;;;;;;4999848;28;20030;-78
2021/03/04 02:24:20;;;;;;;28.65;13.50;;;0.80;75.00;;;;;;5017462;28;20026;-81
2021/03/04 02:27:10;;;;;;;30.35;13.55;;;0.80;74.80;;;;;;5017308;28;20022;-77
2021/03/04 02:29:43;;;;;;;30.30;14.07;;;0.80;74.80;;;;;;5010079;28;20424;-78
2021/03/04 02:32:10;;;;;;;29.88;13.52;;;0.80;74.80;;;;;;5015068;28;20042;-79
2021/03/04 02:34:42;;;;;;;29.92;15.30;;;0.80;74.80;;;;;;4999452;28;20384;-78
2021/03/04 02:37:09;;;;;;;31.55;14.10;;;0.80;74.90;;;;;;5007104;28;20030;-78
2021/03/04 02:39:36;;;;;;;32.28;15.27;;;0.80;75.00;;;;;;5025496;28;20022;-79
2021/03/04 02:42:02;;;;;;;35.53;14.00;;;0.80;75.00;;;;;;5023853;28;20110;-79
2021/03/04 02:44:29;;;;;;;28.42;14.10;;;0.80;75.10;;;;;;4991055;28;20468;-79
2021/03/04 02:46:55;;;;;;;30.13;15.05;;;0.70;74.90;;;;;;5024657;28;20049;-78
2021/03/04 02:49:21;;;;;;;30.90;14.25;;;0.80;75.10;;;;;;5024681;28;20499;-77
2021/03/04 02:51:49;;;;;;;32.08;14.48;;;0.80;75.20;;;;;;5024519;28;20042;-77
2021/03/04 02:54:15;;;;;;;28.02;13.45;;;0.70;75.20;;;;;;5004672;28;20065;-78
2021/03/04 02:56:42;;;;;;;27.45;12.93;;;0.70;75.30;;;;;;5023790;28;20026;-78
2021/03/04 02:59:09;;;;;;;29.42;14.02;;;0.70;75.30;;;;;;5025352;28;20037;-79
2021/03/04 03:01:35;;;;;;;29.20;14.52;;;0.80;75.50;;;;;;5021230;28;20034;-80
2021/03/04 03:04:02;;;;;;;30.13;13.68;;;0.70;75.30;;;;;;5015325;28;20025;-79
2021/03/04 03:06:28;;;;;;;26.88;14.05;;;0.80;75.30;;;;;;5014992;28;20441;-79
2021/03/04 03:08:55;;;;;;;33.10;14.45;;;0.70;75.20;;;;;;4997256;28;20022;-79
2021/03/04 03:11:21;;;;;;;30.02;14.45;;;0.80;75.20;;;;;;5014816;28;20056;-79
2021/03/04 03:13:50;;;;;;;27.48;13.93;;;0.70;75.20;;;;;;5014745;28;20018;-79
2021/03/04 03:16:16;;;;;;;32.00;13.93;;;0.70;75.30;;;;;;5014333;28;20478;-79
2021/03/04 03:18:42;;;;;;;35.03;13.98;;;0.70;75.30;;;;;;5014199;28;20104;-79
2021/03/04 03:21:08;;;;;;;31.15;14.88;;;0.70;75.20;;;;;;5014002;28;20357;-79
2021/03/04 03:23:34;;;;;;;32.55;14.63;;;0.70;75.20;;;;;;5005268;28;20378;-79
2021/03/04 03:26:00;;;;;;;31.38;15.45;;;0.70;75.30;;;;;;5004033;28;20018;-78
2021/03/04 03:28:26;;;;;;;26.20;13.85;;;0.70;75.40;;;;;;5013920;28;20391;-79
2021/03/04 03:30:53;;;;;;;30.83;14.40;;;0.70;75.40;;;;;;5013728;28;20032;-79
2021/03/04 03:33:20;;;;;;;24.48;13.05;;;0.70;75.50;;;;;;5013853;28;20057;-78
2021/03/04 03:35:46;;;;;;;31.17;14.85;;;0.70;75.50;;;;;;5013309;28;20036;-79
2021/03/04 03:38:14;;;;;;;30.00;14.57;;;0.70;75.50;;;;;;5014164;28;20025;-79
2021/03/04 03:40:44;;;;;;;31.70;15.68;;;0.60;75.50;;;;;;4996323;28;20030;-79
2021/03/04 03:43:11;;;;;;;30.35;14.75;;;0.70;75.40;;;;;;5013703;28;20022;-78
2021/03/04 03:45:56;;;;;;;35.05;14.68;;;0.60;75.30;;;;;;5013533;28;20041;-79
2021/03/04 03:48:23;;;;;;;34.60;16.05;;;0.60;75.40;;;;;;5013698;28;20052;-79
2021/03/04 03:50:52;;;;;;;33.28;14.30;;;0.60;75.30;;;;;;5013501;28;20061;-78
2021/03/04 03:53:19;;;;;;;40.70;16.65;;;0.60;75.50;;;;;;4979618;28;20025;-79
2021/03/04 03:55:50;;;;;;;40.10;15.43;;;0.60;75.50;;;;;;5013278;28;20061;-80
2021/03/04 03:58:21;;;;;;;39.33;17.30;;;0.60;75.50;;;;;;5012973;28;20021;-79
2021/03/04 04:00:48;;;;;;;30.50;16.25;;;0.60;75.70;;;;;;5013090;28;20026;-79
2021/03/04 04:03:15;;;;;;;34.13;15.35;;;0.60;75.80;;;;;;5013407;28;20034;-79
2021/03/04 04:05:41;;;;;;;31.00;14.63;;;0.60;76.00;;;;;;5013330;28;20029;-79
2021/03/04 04:08:07;;;;;;;25.65;11.00;;;0.60;76.00;;;;;;5013526;28;20030;-79
2021/03/04 04:10:34;;;;;;;41.47;16.90;;;0.60;75.90;;;;;;5012945;28;20491;-81
2021/03/04 04:13:01;;;;;;;34.38;16.23;;;0.60;75.90;;;;;;5013123;28;20066;-79
2021/03/04 04:15:29;;;;;;;32.58;12.15;;;0.60;76.10;;;;;;5012852;28;20026;-80
2021/03/04 04:17:58;;;;;;;33.70;15.55;;;0.70;76.10;;;;;;5012831;28;20022;-78
2021/03/04 04:20:24;;;;;;;30.88;15.60;;;0.70;76.10;;;;;;5012287;28;20468;-82
2021/03/04 04:22:52;;;;;;;39.22;17.73;;;0.70;76.20;;;;;;5012653;28;20032;-78
2021/03/04 04:25:22;;;;;;;38.78;16.85;;;0.70;76.20;;;;;;5013507;28;20025;-78
2021/03/04 04:27:53;;;;;;;36.72;17.70;;;0.70;76.30;;;;;;5012949;28;20022;-79
2021/03/04 04:30:20;;;;;;;30.67;15.25;;;0.70;76.30;;;;;;5012593;28;20022;-79
2021/03/04 04:32:46;;;;;;;35.75;16.13;;;0.70;76.30;;;;;;5013090;28;20122;-78
2021/03/04 04:35:13;;;;;;;35.13;16.63;;;0.70;76.30;;;;;;5010157;28;20026;-78
2021/03/04 04:37:40;;;;;;;35.92;16.80;;;0.70;76.40;;;;;;5012808;28;20149;-78
2021/03/04 04:40:07;;;;;;;32.30;15.88;;;0.70;76.30;;;;;;5012863;28;20029;-78
2021/03/04 04:42:32;;;;;;;31.50;15.48;;;0.70;76.90;;;;;;5010205;28;20041;-78
2021/03/04 04:44:58;;;;;;;33.72;14.82;;;0.70;76.20;;;;;;4994879;28;20633;-78
2021/03/04 04:47:24;;;;;;;29.00;13.85;;;0.70;76.30;;;;;;5012952;28;20160;-79
2021/03/04 04:49:50;;;;;;;36.65;16.20;;;0.70;76.20;;;;;;4995417;28;20026;-79
2021/03/04 04:52:15;;;;;;;31.27;13.50;;;0.70;76.20;;;;;;4994615;28;20430;-78
2021/03/04 04:54:41;;;;;;;35.53;14.82;;;0.70;76.10;;;;;;5012314;28;20129;-78
2021/03/04 04:57:07;;;;;;;33.35;14.18;;;0.70;76.20;;;;;;5012172;28;20034;-78
2021/03/04 04:59:33;;;;;;;34.70;14.63;;;0.70;76.80;;;;;;4996983;28;20384;-81
2021/03/04 05:01:59;;;;;;;28.05;14.82;;;0.70;76.30;;;;;;5016256;28;20040;-78
2021/03/04 05:04:25;;;;;;;30.77;14.25;;;0.80;76.30;;;;;;5015593;28;20538;-79
2021/03/04 05:06:50;;;;;;;30.00;14.95;;;0.80;76.30;;;;;;4998007;28;20072;-78
2021/03/04 05:09:16;;;;;;;37.03;15.75;;;0.80;76.40;;;;;;5015841;28;20060;-79
2021/03/04 05:11:42;;;;;;;36.40;16.00;;;0.80;76.40;;;;;;5015870;28;20037;-78
2021/03/04 05:14:08;;;;;;;38.58;17.05;;;0.90;76.50;;;;;;5015972;28;20117;-82
2021/03/04 05:16:33;;;;;;;42.67;17.65;;;0.90;76.50;;;;;;5016597;28;20444;-82
2021/03/04 05:18:59;;;;;;;34.22;15.63;;;1.00;76.50;;;;;;5017127;28;20038;-78
2021/03/04 05:21:25;;;;;;;39.17;17.40;;;1.00;76.50;;;;;;4999451;28;20044;-78
2021/03/04 05:23:50;;;;;;;29.98;14.15;;;1.10;76.50;;;;;;5017678;28;20061;-78
2021/03/04 05:26:16;;;;;;;32.85;14.80;;;1.20;76.50;;;;;;5017219;28;20455;-78
2021/03/04 05:28:42;;;;;;;33.10;15.75;;;1.30;76.50;;;;;;5016862;28;20025;-78
2021/03/04 05:31:07;;;;;;;30.25;14.93;;;1.30;76.40;;;;;;5016582;28;20045;-77
2021/03/04 05:33:33;;;;;;;31.08;14.27;;;1.40;76.30;;;;;;5016557;28;20037;-79
2021/03/04 05:35:59;;;;;;;28.23;13.10;;;1.40;76.10;;;;;;5016167;28;20377;-78
2021/03/04 05:38:24;;;;;;;26.48;13.10;;;1.50;75.80;;;;;;5016154;28;20124;-79
2021/03/04 05:40:50;;;;;;;32.47;13.65;;;1.60;75.60;;;;;;5016906;28;20024;-80
2021/03/04 05:43:17;;;;;;;31.17;15.68;;;1.60;75.50;;;;;;5016134;28;20025;-79
2021/03/04 05:45:48;;;;;;;32.90;14.98;;;1.60;75.60;;;;;;5016271;28;20025;-78
2021/03/04 05:48:19;;;;;;;32.92;15.65;;;1.70;75.60;;;;;;5016253;28;20029;-78
2021/03/04 05:50:50;;;;;;;33.90;15.48;;;1.70;75.60;;;;;;5016087;28;20032;-76
2021/03/04 05:53:19;;;;;;;29.92;13.93;;;1.80;75.50;;;;;;5016045;28;20046;-79
2021/03/04 05:55:46;;;;;;;34.25;16.30;;;1.90;75.40;;;;;;4995302;28;20086;-80
2021/03/04 05:58:12;;;;;;;35.13;16.85;;;1.90;75.40;;;;;;4995744;28;20042;-78
2021/03/04 06:00:40;;;;;;;40.03;16.33;;;2.00;75.30;;;;;;4997042;28;20392;-78
2021/03/04 06:03:07;;;;;;;40.60;18.55;;;2.10;75.30;;;;;;4995656;28;20082;-78
2021/03/04 06:05:33;;;;;;;40.25;17.55;;;2.10;75.20;;;;;;4995746;28;20034;-78
2021/03/04 06:08:02;;;;;;;36.83;18.23;;;2.20;75.10;;;;;;4995131;28;20077;-79
2021/03/04 06:10:28;;;;;;;29.33;12.40;;;2.30;75.10;;;;;;4995024;28;20101;-78
2021/03/04 06:12:54;;;;;;;42.58;16.23;;;2.40;75.00;;;;;;4994970;28;20046;-79
2021/03/04 06:15:22;;;;;;;39.45;16.73;;;2.40;74.80;;;;;;4996148;28;20026;-78
2021/03/04 06:18:00;;;;;;;35.97;17.20;;;2.50;74.70;;;;;;4996033;28;20022;-78
2021/03/04 06:20:44;;;;;;;36.25;17.27;;;2.60;74.60;;;;;;4995857;28;20440;-78
2021/03/04 06:23:10;;;;;;;32.50;14.93;;;2.60;74.50;;;;;;4995933;28;20045;-79
2021/03/04 06:25:37;;;;;;;38.75;17.08;;;2.70;74.40;;;;;;4996521;28;20030;-79
2021/03/04 06:28:03;;;;;;;38.85;16.63;;;2.70;74.30;;;;;;4995969;28;20029;-78
2021/03/04 06:30:40;;;;;;;34.17;16.13;;;2.80;74.30;;;;;;4996144;28;20041;-80
2021/03/04 06:33:08;;;;;;;31.63;15.77;;;2.90;74.20;;;;;;4996448;28;20054;-83
2021/03/04 06:35:39;;;;;;;36.78;16.40;;;2.90;74.10;;;;;;4996568;28;20444;-82
2021/03/04 06:38:19;;;;;;;35.35;15.48;;;3.00;74.50;;;;;;4996353;28;20185;-85
2021/03/04 06:40:47;;;;;;;45.78;15.90;;;3.00;73.70;;;;;;4995699;28;20358;-84
2021/03/04 06:43:20;;;;;;;33.97;15.27;;;3.10;73.70;;;;;;4995980;28;20030;-84
2021/03/04 06:45:46;;;;;;;36.60;15.25;;;3.20;73.70;;;;;;4996331;28;20033;-85
2021/03/04 06:48:14;;;;;;;32.13;14.65;;;3.30;73.80;;;;;;4996461;28;20030;-84
2021/03/04 06:50:42;;;;;;;26.95;13.43;;;3.30;73.50;;;;;;4996340;28;20034;-84
2021/03/04 06:53:19;;;;;;;29.25;13.38;;;3.40;73.30;;;;;;4994103;28;20031;-84
2021/03/04 06:55:47;;;;;;;27.67;12.93;;;3.50;73.20;;;;;;4995092;28;20137;-84
2021/03/04 06:58:13;;;;;;;26.85;12.52;;;3.60;73.00;;;;;;4996370;28;20034;-84
2021/03/04 07:00:39;;;;;;;26.92;13.07;;;3.70;73.10;;;;;;4995927;28;20472;-83
2021/03/04 07:03:04;;;;;;;23.95;11.18;;;3.80;72.90;;;;;;4994267;28;20026;-84
2021/03/04 07:05:30;;;;;;;28.85;12.77;;;3.90;72.60;;;;;;4997666;28;20085;-83
2021/03/04 07:07:57;;;;;;;28.15;12.43;;;4.00;72.50;;;;;;5010071;28;20392;-82
2021/03/04 07:10:25;;;;;;;24.58;11.88;;;4.10;72.30;;;;;;4995244;28;20041;-82
2021/03/04 07:12:51;;;;;;;28.13;12.85;;;4.20;72.10;;;;;;4995319;28;20098;-82
2021/03/04 07:15:19;;;;;;;24.35;12.50;;;4.30;71.90;;;;;;4995679;28;20029;-81
2021/03/04 07:17:47;;;;;;;26.83;12.02;;;4.40;71.70;;;;;;4994435;28;20030;-82
2021/03/04 07:20:18;;;;;;;29.83;14.20;;;4.50;71.40;;;;;;4995261;28;20054;-83
2021/03/04 07:22:48;;;;;;;26.08;12.90;;;4.60;71.10;;;;;;4995252;28;20384;-83
2021/03/04 07:25:15;;;;;;;29.33;13.80;;;4.80;71.10;;;;;;4995446;28;20018;-84
2021/03/04 07:27:42;;;;;;;26.98;12.32;;;4.90;70.80;;;;;;4994989;28;20026;-83
2021/03/04 07:30:12;;;;;;;29.70;12.75;;;5.10;70.30;;;;;;4993536;28;20030;-82
2021/03/04 07:32:38;;;;;;;30.40;13.02;;;5.20;69.90;;;;;;4994932;28;20138;-82
2021/03/04 07:35:14;;;;;;;21.48;10.65;;;5.30;69.50;;;;;;4994642;28;20389;-82
2021/03/04 07:37:44;;;;;;;27.70;12.95;;;5.40;69.00;;;;;;4994901;28;20117;-85
2021/03/04 07:40:13;;;;;;;29.02;14.88;;;5.60;68.90;;;;;;4994481;28;20115;-83
2021/03/04 07:42:39;;;;;;;27.85;14.05;;;5.80;68.60;;;;;;4994754;28;20105;-83
2021/03/04 07:45:15;;;;;;;33.00;15.27;;;5.90;68.30;;;;;;4994765;28;20132;-83
2021/03/04 07:47:41;;;;;;;28.45;16.05;;;6.10;68.20;;;;;;4994747;28;20092;-83
2021/03/04 07:50:22;;;;;;;33.17;16.52;;;6.30;68.10;;;;;;4994378;28;20033;-82
2021/03/04 07:52:48;;;;;;;39.88;14.77;;;6.50;67.50;;;;;;4994967;28;20034;-83
2021/03/04 07:55:15;;;;;;;29.63;15.27;;;6.60;66.90;;;;;;5009410;28;20045;-85
2021/03/04 07:57:48;;;;;;;34.50;15.70;;;6.80;66.60;;;;;;4995139;28;20045;-83
2021/03/04 08:00:15;;;;;;;33.33;15.18;;;7.00;65.80;;;;;;4995818;28;20500;-83
2021/03/04 08:02:42;;;;;;;32.75;15.57;;;7.20;65.50;;;;;;5012240;28;20480;-84
2021/03/04 08:05:16;;;;;;;34.38;15.43;;;7.40;65.10;;;;;;5010252;28;20030;-82
2021/03/04 08:07:44;;;;;;;33.30;16.57;;;7.70;64.40;;;;;;5012822;28;20535;-82
2021/03/04 08:10:18;;;;;;;37.63;17.08;;;7.80;64.20;;;;;;4993036;28;20041;-82
2021/03/04 08:13:02;;;;;;;39.37;17.27;;;8.00;63.50;;;;;;4994792;28;20077;-83
2021/03/04 08:15:48;;;;;;;34.22;17.38;;;8.30;62.80;;;;;;5010106;28;20267;-83
2021/03/04 08:18:21;;;;;;;37.00;17.52;;;8.50;62.50;;;;;;4993288;28;20092;-83
2021/03/04 08:20:48;;;;;;;32.95;16.52;;;8.90;62.20;;;;;;5012869;28;20050;-83
2021/03/04 08:23:18;;;;;;;37.75;18.40;;;9.30;61.50;;;;;;4994544;28;20033;-82
2021/03/04 08:25:45;;;;;;;36.85;16.80;;;9.80;60.90;;;;;;5012047;28;20526;-83
2021/03/04 08:28:24;;;;;;;34.92;17.48;;;10.30;60.70;;;;;;5012565;28;20048;-85
2021/03/04 08:30:50;;;;;;;33.60;16.80;;;10.80;60.00;;;;;;5012497;28;20026;-83
2021/03/04 08:33:16;;;;;;;36.20;18.55;;;11.50;59.60;;;;;;4995993;28;20037;-82
2021/03/04 08:35:47;;;;;;;36.28;18.35;;;12.20;58.10;;;;;;4998697;28;20033;-81
2021/03/04 08:38:15;;;;;;;31.77;16.40;;;12.80;56.10;;;;;;5016668;28;20040;-83
2021/03/04 08:40:52;;;;;;;32.17;16.48;;;13.30;54.00;;;;;;5016695;28;20120;-82
2021/03/04 08:43:20;;;;;;;35.03;17.08;;;13.80;52.20;;;;;;5016292;28;20522;-82
2021/03/04 08:45:50;;;;;;;36.03;17.52;;;14.30;50.70;;;;;;5016215;28;20025;-82
2021/03/04 08:48:15;;;;;;;38.33;18.65;;;14.70;50.10;;;;;;5016312;28;20026;-83
2021/03/04 08:50:44;;;;;;;32.63;17.65;;;15.20;49.30;;;;;;5016102;28;20395;-84
2021/03/04 08:53:27;;;;;;;33.53;18.77;;;15.80;47.90;;;;;;5013374;28;20029;-82
2021/03/04 08:55:55;;;;;;;33.75;18.48;;;16.10;46.00;;;;;;5015297;28;20042;-82
2021/03/04 08:58:23;;;;;;;32.78;17.98;;;16.40;45.40;;;;;;5016535;28;20344;-83
2021/03/04 09:01:00;;;;;;;32.30;18.63;;;16.70;44.70;;;;;;5016148;28;20045;-80
2021/03/04 09:03:33;;;;;;;30.90;16.90;;;17.00;43.60;;;;;;5016051;28;20160;-83
2021/03/04 09:06:17;;;;;;;26.92;15.57;;;17.20;42.90;;;;;;4997931;28;20030;-82
2021/03/04 09:08:48;;;;;;;26.30;16.98;;;17.40;42.10;;;;;;5013249;28;20014;-83
2021/03/04 09:11:30;;;;;;;28.10;16.58;;;17.50;41.90;;;;;;5015164;28;20026;-82
2021/03/04 09:14:05;;;;;;;23.45;12.88;;;17.70;41.10;;;;;;4996747;28;20034;-83
2021/03/04 09:16:49;;;;;;;27.52;15.13;;;18.00;40.60;;;;;;5015867;28;20018;-83
2021/03/04 09:19:31;;;;;;;28.60;17.25;;;18.10;39.80;;;;;;5016568;28;20022;-82
2021/03/04 09:21:58;;;;;;;27.95;17.00;;;18.30;39.80;;;;;;5016073;28;20030;-83
2021/03/04 09:24:26;;;;;;;28.48;16.65;;;18.60;39.60;;;;;;5016726;28;20022;-81
2021/03/04 09:26:52;;;;;;;28.52;15.50;;;18.90;39.10;;;;;;5017065;28;20037;-81
2021/03/04 09:29:19;;;;;;;26.60;15.52;;;19.10;38.70;;;;;;5016935;28;20037;-82
2021/03/04 09:31:50;;;;;;;26.42;16.10;;;19.30;38.10;;;;;;5016908;28;20061;-82
2021/03/04 09:34:15;;;;;;;27.42;15.45;;;19.40;37.30;;;;;;5016384;28;20526;-82
2021/03/04 09:36:41;;;;;;;28.80;16.13;;;19.50;37.50;;;;;;5016311;28;20140;-83
2021/03/04 09:39:07;;;;;;;26.85;16.33;;;19.60;36.90;;;;;;5014643;28;20073;-85
2021/03/04 09:41:33;;;;;;;27.80;16.33;;;19.90;36.50;;;;;;5016383;28;20080;-84
2021/03/04 09:44:05;;;;;;;27.40;16.38;;;19.90;36.80;;;;;;5015822;28;20460;-83
2021/03/04 09:46:41;;;;;;;25.90;16.33;;;20.00;35.90;;;;;;5016160;28;20108;-82
2021/03/04 09:49:17;;;;;;;30.45;18.33;;;20.00;35.40;;;;;;5016406;28;20038;-83
2021/03/04 09:51:46;;;;;;;28.20;17.73;;;19.80;35.30;;;;;;5016740;28;20034;-83
2021/03/04 09:54:24;;;;;;;30.45;16.95;;;19.60;35.50;;;;;;5016339;28;20085;-81
2021/03/04 09:57:07;;;;;;;28.95;18.88;;;19.40;35.70;;;;;;5016399;28;20037;-83
2021/03/04 09:59:53;;;;;;;32.10;17.08;;;19.40;36.20;;;;;;5016017;28;20417;-84
2021/03/04 10:02:20;;;;;;;34.20;18.08;;;19.40;36.00;;;;;;5015948;28;20207;-84
2021/03/04 10:04:56;;;;;;;29.20;18.05;;;19.00;35.90;;;;;;5015738;28;20075;-83
2021/03/04 10:07:30;;;;;;;28.83;16.88;;;18.80;36.40;;;;;;5016247;28;20041;-80
2021/03/04 10:09:57;;;;;;;33.15;16.73;;;18.90;36.50;;;;;;5016181;28;20022;-81
2021/03/04 10:12:23;;;;;;;23.52;14.35;;;19.20;36.60;;;;;;5016469;28;20069;-81
2021/03/04 10:14:55;;;;;;;29.60;17.23;;;19.50;36.30;;;;;;5015584;28;20061;-81
2021/03/04 10:17:21;;;;;;;24.98;14.70;;;19.60;35.80;;;;;;4995939;28;20103;-80
2021/03/04 10:19:48;;;;;;;28.58;16.67;;;19.40;35.80;;;;;;4996210;28;20560;-83
2021/03/04 10:22:14;;;;;;;33.38;18.00;;;19.20;35.90;;;;;;4995977;28;20026;-83
2021/03/04 10:24:42;;;;;;;32.47;17.35;;;18.80;36.10;;;;;;4995524;28;20399;-83
2021/03/04 10:27:08;;;;;;;26.80;16.20;;;18.60;36.60;;;;;;4995933;28;20075;-83
2021/03/04 10:29:35;;;;;;;30.02;18.35;;;18.60;36.80;;;;;;4995790;28;20524;-84
2021/03/04 10:32:01;;;;;;;30.30;16.45;;;18.70;36.70;;;;;;4995702;28;20050;-85
2021/03/04 10:34:27;;;;;;;24.55;15.45;;;19.00;36.70;;;;;;4978655;28;20058;-83
2021/03/04 10:36:53;;;;;;;29.55;16.15;;;19.40;36.30;;;;;;4978344;28;20026;-83
2021/03/04 10:39:21;;;;;;;27.38;16.60;;;19.70;36.00;;;;;;4995355;28;20547;-82
2021/03/04 10:41:48;;;;;;;24.85;15.05;;;19.90;35.60;;;;;;4995583;28;20040;-82
2021/03/04 10:44:14;;;;;;;24.65;15.88;;;20.20;35.10;;;;;;4995638;28;20027;-82
2021/03/04 10:46:40;;;;;;;25.25;15.68;;;20.10;34.80;;;;;;4995354;28;20113;-83
2021/03/04 10:49:07;;;;;;;24.80;15.57;;;20.10;34.70;;;;;;4994998;28;20117;-83
2021/03/04 10:51:33;;;;;;;22.95;14.90;;;20.30;34.90;;;;;;4995651;28;20035;-83
2021/03/04 10:53:59;;;;;;;23.58;15.55;;;20.50;34.40;;;;;;4995053;28;20800;-82
2021/03/04 10:56:25;;;;;;;29.00;15.55;;;20.70;34.40;;;;;;4995317;28;20022;-83
2021/03/04 10:58:51;;;;;;;25.88;15.80;;;20.60;34.00;;;;;;4996919;28;20038;-83
2021/03/04 11:01:17;;;;;;;27.63;15.77;;;20.40;34.00;;;;;;5003948;28;20027;-82
2021/03/04 11:03:43;;;;;;;30.77;17.80;;;20.10;34.10;;;;;;4978936;28;20028;-83
2021/03/04 11:06:10;;;;;;;27.15;16.88;;;19.90;34.40;;;;;;4995818;28;20031;-82
2021/03/04 11:08:36;;;;;;;24.40;15.57;;;19.80;34.70;;;;;;4995080;28;20069;-83
2021/03/04 11:11:02;;;;;;;26.00;15.65;;;19.60;34.80;;;;;;4977960;28;20065;-83
2021/03/04 11:13:28;;;;;;;24.23;14.43;;;19.20;34.90;;;;;;4995389;28;20110;-83
2021/03/04 11:15:54;;;;;;;29.83;16.45;;;18.90;35.30;;;;;;4994821;28;20026;-81
2021/03/04 11:18:19;;;;;;;25.38;14.75;;;18.70;35.90;;;;;;4994081;28;20527;-83
2021/03/04 11:20:45;;;;;;;30.88;17.88;;;18.70;36.20;;;;;;4995141;28;20085;-83
2021/03/04 11:23:11;;;;;;;29.85;17.00;;;18.70;36.30;;;;;;4994886;28;20026;-82
2021/03/04 11:25:36;;;;;;;27.63;16.33;;;18.80;36.30;;;;;;4995108;28;20376;-82
2021/03/04 11:28:04;;;;;;;30.83;17.48;;;19.00;36.40;;;;;;4995047;28;20143;-83
2021/03/04 11:30:30;;;;;;;27.17;16.27;;;19.10;36.00;;;;;;4994346;28;20030;-83
2021/03/04 11:32:56;;;;;;;26.52;15.50;;;19.00;35.80;;;;;;4994698;28;20495;-82
2021/03/04 11:35:27;;;;;;;28.48;16.85;;;19.00;36.00;;;;;;4995177;28;20023;-82
2021/03/04 11:37:56;;;;;;;27.40;16.60;;;19.10;35.90;;;;;;4994534;28;20113;-83
2021/03/04 11:40:24;;;;;;;24.80;15.68;;;19.10;35.80;;;;;;4994535;28;20034;-83
2021/03/04 11:42:51;;;;;;;23.25;14.32;;;19.20;35.60;;;;;;4994894;28;20362;-84
2021/03/04 11:45:17;;;;;;;26.30;15.85;;;19.30;35.60;;;;;;4994197;28;20388;-84
2021/03/04 11:47:42;;;;;;;27.27;16.83;;;19.30;35.50;;;;;;4995070;28;20034;-82
2021/03/04 11:50:09;;;;;;;26.52;15.68;;;19.50;35.60;;;;;;4994786;28;20453;-82
2021/03/04 11:52:35;;;;;;;26.25;15.77;;;19.60;35.30;;;;;;4993982;28;20034;-81
2021/03/04 11:55:03;;;;;;;25.92;15.85;;;19.60;35.20;;;;;;4994502;28;20053;-83
2021/03/04 11:57:29;;;;;;;26.08;15.98;;;19.60;35.20;;;;;;4994282;28;20480;-83
2021/03/04 11:59:56;;;;;;;24.42;15.73;;;19.60;35.10;;;;;;4994768;28;20101;-84
2021/03/04 12:02:22;;;;;;;26.23;15.45;;;19.50;35.20;;;;;;4994779;28;20038;-83
2021/03/04 12:04:48;;;;;;;29.25;16.83;;;19.50;35.20;;;;;;4994420;28;20045;-83
2021/03/04 12:07:14;;;;;;;30.70;16.00;;;19.60;35.40;;;;;;4994548;28;20063;-81
2021/03/04 12:09:40;;;;;;;26.75;16.38;;;19.70;35.30;;;;;;4993325;28;20108;-83
2021/03/04 12:12:06;;;;;;;24.70;16.27;;;19.90;35.50;;;;;;4994411;28;20034;-83
2021/03/04 12:14:32;;;;;;;29.00;16.48;;;20.00;35.00;;;;;;4996925;28;20054;-82
2021/03/04 12:16:58;;;;;;;30.13;16.92;;;20.30;34.70;;;;;;5013722;28;20108;-83
2021/03/04 12:19:23;;;;;;;26.85;16.13;;;20.40;34.30;;;;;;5014185;28;20087;-82
2021/03/04 12:21:49;;;;;;;27.67;16.25;;;20.40;34.10;;;;;;4995608;28;20181;-83
2021/03/04 12:24:15;;;;;;;25.92;16.85;;;20.50;34.00;;;;;;5013522;28;20483;-83
2021/03/04 12:26:40;;;;;;;25.13;16.20;;;20.60;34.00;;;;;;5013229;28;20029;-83
2021/03/04 12:32:31;;;;;;;27.95;16.48;;;20.20;34.10;;;;;;5013490;28;20451;-83
2021/03/04 12:34:56;;;;;;;28.10;16.40;;;20.10;34.30;;;;;;5013425;28;20029;-83
2021/03/04 12:37:22;;;;;;;27.80;16.50;;;20.00;34.50;;;;;;5013039;28;20526;-83
2021/03/04 12:39:48;;;;;;;29.60;17.50;;;20.00;35.30;;;;;;5013201;28;20030;-83
2021/03/04 12:42:13;;;;;;;27.35;17.15;;;20.10;34.60;;;;;;5013066;28;20448;-82